Time,TemperatureF,DewpointF,PressureIn,WindDirection,WindDirectionDegrees,WindSpeedMPH,WindSpeedGustMPH,Humidity,HourlyPrecipIn,Conditions,Clouds,dailyrainin,SolarRadiationWatts/m^2,SoftwareType,DateUTC
2013-04-24 00:00:00,72.5,62.2,30.10,WSW,248,3.0,9.0,70,0.00,,---,0.00,0.00,VWS V14.01,2013-04-24 04:00:00,
2013-04-24 00:01:00,72.5,62.0,30.10,SW,216,3.0,8.0,70,0.00,,,0.00,0,weatherlink.com 1.10,2013-04-24 04:01:00,
2013-04-24 00:16:00,72.4,63.0,30.10,SSW,205,2.0,9.0,71,0.00,,,0.00,0,weatherlink.com 1.10,2013-04-24 04:16:00,
2013-04-24 00:30:00,72.3,62.0,30.10,SW,225,3.0,9.0,70,0.00,,---,0.00,0.00,VWS V14.01,2013-04-24 04:30:00,
2013-04-24 00:31:00,72.3,62.0,30.10,SSW,202,2.0,7.0,70,0.00,,,0.00,0,weatherlink.com 1.10,2013-04-24 04:31:00,
2013-04-24 00:46:00,72.3,63.0,30.10,SW,232,3.0,9.0,72,0.00,,,0.00,0,weatherlink.com 1.10,2013-04-24 04:46:00,
2013-04-24 01:00:00,72.2,61.9,30.10,WSW,248,3.0,9.0,70,0.00,,---,0.00,0.00,VWS V14.01,2013-04-24 05:00:00,
2013-04-24 01:01:00,72.2,62.0,30.09,West,259,1.0,6.0,70,0.00,,,0.00,0,weatherlink.com 1.10,2013-04-24 05:01:00,
2013-04-24 01:16:00,72.0,62.0,30.09,WSW,258,2.0,5.0,70,0.00,,,0.00,0,weatherlink.com 1.10,2013-04-24 05:16:00,
2013-04-24 01:30:00,71.9,61.6,30.09,WSW,248,2.0,7.0,70,0.00,,---,0.00,0.00,VWS V14.01,2013-04-24 05:30:00,
2013-04-24 01:31:00,71.9,62.0,30.09,West,273,2.0,7.0,71,0.00,,,0.00,0,weatherlink.com 1.10,2013-04-24 05:31:00,
2013-04-24 01:46:00,72.0,62.0,30.09,WNW,283,2.0,7.0,71,0.00,,,0.00,0,weatherlink.com 1.10,2013-04-24 05:46:00,
2013-04-24 02:00:00,72.0,62.1,30.08,West,270,3.0,7.0,71,0.00,,---,0.00,0.00,VWS V14.01,2013-04-24 06:00:00,
2013-04-24 02:01:00,72.0,62.0,30.08,SW,223,3.0,4.0,71,0.00,,,0.00,0,weatherlink.com 1.10,2013-04-24 06:01:00,
2013-04-24 02:16:00,71.9,62.0,30.08,West,271,3.0,6.0,70,0.00,,,0.00,0,weatherlink.com 1.10,2013-04-24 06:16:00,
2013-04-24 02:30:00,71.9,62.0,30.07,West,270,2.0,8.0,71,0.00,,---,0.00,0.00,VWS V14.01,2013-04-24 06:30:00,
2013-04-24 02:31:00,71.9,62.0,30.07,West,265,2.0,8.0,71,0.00,,,0.00,0,weatherlink.com 1.10,2013-04-24 06:31:00,
2013-04-24 02:46:00,71.9,62.0,30.06,West,271,4.0,4.0,72,0.00,,,0.00,0,weatherlink.com 1.10,2013-04-24 06:46:00,
2013-04-24 03:00:00,72.0,62.5,30.06,West,270,3.0,8.0,72,0.00,,---,0.00,0.00,VWS V14.01,2013-04-24 07:00:00,
2013-04-24 03:01:00,72.0,62.0,30.06,West,273,5.0,8.0,71,0.00,,,0.00,0,weatherlink.com 1.10,2013-04-24 07:01:00,
2013-04-24 03:16:00,72.2,63.0,30.05,West,269,6.0,6.0,72,0.00,,,0.00,0,weatherlink.com 1.10,2013-04-24 07:16:00,
2013-04-24 03:30:00,72.5,63.0,30.05,West,270,4.0,8.0,72,0.00,,---,0.00,0.00,VWS V14.01,2013-04-24 07:30:00,
2013-04-24 03:31:00,72.6,63.0,30.05,WNW,286,5.0,9.0,72,0.00,,,0.00,0,weatherlink.com 1.10,2013-04-24 07:31:00,
2013-04-24 03:46:00,72.8,64.0,30.05,WNW,286,5.0,7.0,73,0.00,,,0.00,0,weatherlink.com 1.10,2013-04-24 07:46:00,
2013-04-24 04:00:00,72.8,63.7,30.05,WNW,292,3.0,9.0,73,0.00,,---,0.00,0.00,VWS V14.01,2013-04-24 08:00:00,
2013-04-24 04:01:00,72.8,64.0,30.05,WNW,290,2.0,5.0,73,0.00,,,0.00,0,weatherlink.com 1.10,2013-04-24 08:01:00,
2013-04-24 04:16:00,72.7,64.0,30.05,WNW,296,3.0,6.0,73,0.00,,,0.00,0,weatherlink.com 1.10,2013-04-24 08:16:00,
2013-04-24 04:30:00,72.7,63.9,30.06,West,270,3.0,6.0,74,0.00,,---,0.00,0.00,VWS V14.01,2013-04-24 08:30:00,
2013-04-24 04:31:00,72.6,64.0,30.06,NNW,348,1.0,6.0,74,0.00,,,0.00,0,weatherlink.com 1.10,2013-04-24 08:31:00,
2013-04-24 04:47:00,72.5,64.0,30.06,West,263,3.0,5.0,74,0.00,,,0.00,0,weatherlink.com 1.10,2013-04-24 08:47:00,
2013-04-24 05:00:00,72.5,63.8,30.07,West,270,2.0,7.0,74,0.00,,---,0.00,0.00,VWS V14.01,2013-04-24 09:00:00,
2013-04-24 05:02:00,72.5,64.0,30.07,West,280,1.0,4.0,74,0.00,,,0.00,0,weatherlink.com 1.10,2013-04-24 09:02:00,
2013-04-24 05:17:00,72.4,64.0,30.07,West,278,5.0,7.0,74,0.00,,,0.00,0,weatherlink.com 1.10,2013-04-24 09:17:00,
2013-04-24 05:30:00,72.3,63.2,30.07,West,270,3.0,8.0,73,0.00,,---,0.00,0.00,VWS V14.01,2013-04-24 09:30:00,
2013-04-24 05:32:00,72.3,63.0,30.07,West,280,3.0,6.0,73,0.00,,,0.00,0,weatherlink.com 1.10,2013-04-24 09:32:00,
2013-04-24 05:47:00,72.4,63.0,30.08,WSW,257,4.0,5.0,72,0.00,,,0.00,0,weatherlink.com 1.10,2013-04-24 09:47:00,
2013-04-24 06:00:00,72.4,62.9,30.08,West,270,3.0,6.0,72,0.00,,---,0.00,0.00,VWS V14.01,2013-04-24 10:00:00,
2013-04-24 06:02:00,72.4,63.0,30.08,West,271,5.0,6.0,73,0.00,,,0.00,0,weatherlink.com 1.10,2013-04-24 10:02:00,
2013-04-24 06:17:00,72.6,63.0,30.08,West,275,4.0,7.0,73,0.00,,,0.00,0,weatherlink.com 1.10,2013-04-24 10:17:00,
2013-04-24 06:30:00,72.6,63.1,30.09,West,270,3.0,8.0,72,0.00,,---,0.00,0.00,VWS V14.01,2013-04-24 10:30:00,
2013-04-24 06:32:00,72.6,63.0,30.09,WNW,290,4.0,6.0,72,0.00,,,0.00,0,weatherlink.com 1.10,2013-04-24 10:32:00,
2013-04-24 06:47:00,72.5,63.0,30.09,WNW,292,3.0,5.0,72,0.00,,,0.00,0,weatherlink.com 1.10,2013-04-24 10:47:00,
2013-04-24 07:00:00,72.6,63.5,30.10,West,270,3.0,6.0,73,0.00,,---,0.00,3.00,VWS V14.01,2013-04-24 11:00:00,
2013-04-24 07:02:00,72.6,63.0,30.10,West,281,2.0,5.0,73,0.00,,,0.00,14,weatherlink.com 1.10,2013-04-24 11:02:00,
2013-04-24 07:17:00,72.9,64.0,30.11,WSW,257,2.0,6.0,73,0.00,,,0.00,56,weatherlink.com 1.10,2013-04-24 11:17:00,
2013-04-24 07:30:00,73.4,63.8,30.11,West,270,4.0,9.0,72,0.00,,---,0.00,48.00,VWS V14.01,2013-04-24 11:30:00,
2013-04-24 07:32:00,73.7,63.0,30.11,WSW,245,5.0,9.0,69,0.00,,,0.00,95,weatherlink.com 1.10,2013-04-24 11:32:00,
2013-04-24 07:47:00,74.6,63.0,30.11,SSW,202,3.0,7.0,68,0.00,,,0.00,137,weatherlink.com 1.10,2013-04-24 11:47:00,
2013-04-24 08:00:00,75.3,63.6,30.11,WSW,248,4.0,9.0,67,0.00,,---,0.00,127.00,VWS V14.01,2013-04-24 12:00:00,
2013-04-24 08:02:00,75.5,63.0,30.11,West,266,4.0,7.0,66,0.00,,,0.00,197,weatherlink.com 1.10,2013-04-24 12:02:00,
2013-04-24 08:17:00,76.6,63.0,30.12,WSW,252,4.0,6.0,64,0.00,,,0.00,250,weatherlink.com 1.10,2013-04-24 12:17:00,
2013-04-24 08:30:00,77.4,62.9,30.12,WSW,248,4.0,9.0,61,0.00,,---,0.00,242.00,VWS V14.01,2013-04-24 12:30:00,
2013-04-24 08:32:00,77.7,64.0,30.12,West,275,4.0,8.0,63,0.00,,,0.00,316,weatherlink.com 1.10,2013-04-24 12:32:00,
2013-04-24 08:47:00,78.3,64.0,30.12,West,274,5.0,6.0,61,0.00,,,0.00,376,weatherlink.com 1.10,2013-04-24 12:47:00,
2013-04-24 09:00:00,78.7,63.2,30.13,West,270,4.0,7.0,59,0.00,,---,0.00,361.00,VWS V14.01,2013-04-24 13:00:00,
2013-04-24 09:02:00,79.0,64.0,30.12,West,265,4.0,6.0,60,0.00,,,0.00,436,weatherlink.com 1.10,2013-04-24 13:02:00,
2013-04-24 09:17:00,79.7,64.0,30.13,West,264,3.0,6.0,59,0.00,,,0.00,527,weatherlink.com 1.10,2013-04-24 13:17:00,
2013-04-24 09:30:00,80.2,64.1,30.13,West,270,4.0,7.0,58,0.00,,---,0.00,484.00,VWS V14.01,2013-04-24 13:30:00,
2013-04-24 09:32:00,80.3,64.0,30.13,SW,227,3.0,7.0,58,0.00,,,0.00,550,weatherlink.com 1.10,2013-04-24 13:32:00,
2013-04-24 09:47:00,80.9,64.0,30.13,West,277,5.0,6.0,57,0.00,,,0.00,608,weatherlink.com 1.10,2013-04-24 13:47:00,
2013-04-24 10:00:00,81.2,64.0,30.14,West,270,4.0,7.0,56,0.00,,---,0.00,590.00,VWS V14.01,2013-04-24 14:00:00,
2013-04-24 10:02:00,81.4,64.0,30.14,WSW,248,2.0,7.0,56,0.00,,,0.00,659,weatherlink.com 1.10,2013-04-24 14:02:00,
2013-04-24 10:17:00,82.1,64.0,30.14,West,270,5.0,6.0,55,0.00,,,0.00,744,weatherlink.com 1.10,2013-04-24 14:17:00,
2013-04-24 10:30:00,82.7,64.9,30.14,West,270,3.0,7.0,55,0.00,,---,0.00,716.00,VWS V14.01,2013-04-24 14:30:00,
2013-04-24 10:33:00,82.9,65.0,30.14,WSW,252,2.0,9.0,55,0.00,,,0.00,807,weatherlink.com 1.10,2013-04-24 14:33:00,
2013-04-24 10:48:00,83.2,65.0,30.14,SW,225,4.0,10.0,54,0.00,,,0.00,793,weatherlink.com 1.10,2013-04-24 14:48:00,
2013-04-24 11:00:00,83.5,64.0,30.15,West,270,4.0,10.0,52,0.00,,---,0.00,810.00,VWS V14.01,2013-04-24 15:00:00,
2013-04-24 11:03:00,83.8,64.0,30.15,West,259,3.0,6.0,51,0.00,,,0.00,865,weatherlink.com 1.10,2013-04-24 15:03:00,
2013-04-24 11:18:00,84.7,64.0,30.14,SSW,205,6.0,7.0,50,0.00,,,0.00,884,weatherlink.com 1.10,2013-04-24 15:18:00,
2013-04-24 11:30:00,84.7,64.0,30.14,WSW,248,4.0,8.0,50,0.00,,---,0.00,877.00,VWS V14.01,2013-04-24 15:30:00,
2013-04-24 11:33:00,84.7,65.0,30.14,WSW,237,3.0,7.0,51,0.00,,,0.00,912,weatherlink.com 1.10,2013-04-24 15:33:00,
2013-04-24 11:48:00,85.1,63.0,30.14,SSW,192,6.0,10.0,48,0.00,,,0.00,940,weatherlink.com 1.10,2013-04-24 15:48:00,
2013-04-24 12:00:00,84.9,64.2,30.14,SSW,202,4.0,10.0,50,0.00,,---,0.00,933.00,VWS V14.01,2013-04-24 16:00:00,
2013-04-24 12:03:00,84.9,64.0,30.13,WSW,244,4.0,5.0,50,0.00,,,0.00,974,weatherlink.com 1.10,2013-04-24 16:03:00,
2013-04-24 12:18:00,85.5,65.0,30.13,WSW,252,2.0,5.0,51,0.00,,,0.00,659,weatherlink.com 1.10,2013-04-24 16:18:00,
2013-04-24 12:30:00,85.7,64.4,30.13,West,270,3.0,6.0,49,0.00,,---,0.00,986.00,VWS V14.01,2013-04-24 16:30:00,
2013-04-24 12:33:00,85.9,65.0,30.13,WSW,246,5.0,7.0,49,0.00,,,0.00,1005,weatherlink.com 1.10,2013-04-24 16:33:00,
2013-04-24 12:48:00,86.1,64.0,30.12,WSW,254,3.0,6.0,48,0.00,,,0.00,1016,weatherlink.com 1.10,2013-04-24 16:48:00,
2013-04-24 13:00:00,86.3,64.9,30.12,WSW,248,3.0,7.0,49,0.00,,---,0.00,1013.00,VWS V14.01,2013-04-24 17:00:00,
2013-04-24 13:03:00,86.5,65.0,30.12,SW,223,5.0,6.0,49,0.00,,,0.00,1023,weatherlink.com 1.10,2013-04-24 17:03:00,
2013-04-24 13:18:00,86.8,65.0,30.11,West,266,2.0,7.0,48,0.00,,,0.00,1030,weatherlink.com 1.10,2013-04-24 17:18:00,
2013-04-24 13:30:00,87.2,65.1,30.11,West,270,3.0,7.0,48,0.00,,---,0.00,1027.00,VWS V14.01,2013-04-24 17:30:00,
2013-04-24 13:33:00,87.3,66.0,30.11,WNW,294,3.0,5.0,49,0.00,,,0.00,1032,weatherlink.com 1.10,2013-04-24 17:33:00,
2013-04-24 13:48:00,87.7,65.0,30.12,West,279,2.0,7.0,47,0.00,,,0.00,1027,weatherlink.com 1.10,2013-04-24 17:48:00,
2013-04-24 14:00:00,87.7,65.0,30.11,West,270,3.0,7.0,47,0.00,,---,0.00,1025.00,VWS V14.01,2013-04-24 18:00:00,
2013-04-24 14:03:00,87.7,64.0,30.11,West,263,2.0,7.0,46,0.00,,,0.00,1018,weatherlink.com 1.10,2013-04-24 18:03:00,
2013-04-24 14:18:00,87.7,65.0,30.11,SSW,200,5.0,7.0,47,0.00,,,0.00,1007,weatherlink.com 1.10,2013-04-24 18:18:00,
2013-04-24 14:30:00,87.8,64.5,30.11,West,270,3.0,7.0,46,0.00,,---,0.00,1004.00,VWS V14.01,2013-04-24 18:30:00,
2013-04-24 14:33:00,87.9,65.0,30.11,West,259,3.0,5.0,47,0.00,,,0.00,984,weatherlink.com 1.10,2013-04-24 18:33:00,
2013-04-24 14:48:00,88.5,65.0,30.11,SSW,209,4.0,6.0,45,0.00,,,0.00,965,weatherlink.com 1.10,2013-04-24 18:48:00,
2013-04-24 15:00:00,88.7,64.7,30.11,West,270,3.0,6.0,45,0.00,,---,0.00,971.00,VWS V14.01,2013-04-24 19:00:00,
2013-04-24 15:03:00,88.7,65.0,30.11,WSW,245,2.0,6.0,45,0.00,,,0.00,939,weatherlink.com 1.10,2013-04-24 19:03:00,
2013-04-24 15:18:00,88.9,66.0,30.11,West,266,2.0,7.0,46,0.00,,,0.00,909,weatherlink.com 1.10,2013-04-24 19:18:00,
2013-04-24 15:30:00,89.1,65.0,30.10,WSW,248,3.0,7.0,45,0.00,,---,0.00,917.00,VWS V14.01,2013-04-24 19:30:00,
2013-04-24 15:33:00,89.3,65.0,30.11,West,268,2.0,5.0,45,0.00,,,0.00,875,weatherlink.com 1.10,2013-04-24 19:33:00,
2013-04-24 15:48:00,89.9,65.0,30.10,WSW,254,2.0,5.0,44,0.00,,,0.00,830,weatherlink.com 1.10,2013-04-24 19:48:00,
2013-04-24 16:00:00,90.3,64.8,30.10,West,270,2.0,5.0,43,0.00,,---,0.00,846.00,VWS V14.01,2013-04-24 20:00:00,
2013-04-24 16:03:00,90.4,65.0,30.10,West,271,2.0,5.0,43,0.00,,,0.00,780,weatherlink.com 1.10,2013-04-24 20:03:00,
2013-04-24 16:18:00,90.8,66.0,30.10,SW,227,2.0,6.0,44,0.00,,,0.00,754,weatherlink.com 1.10,2013-04-24 20:18:00,
2013-04-24 16:30:00,91.0,65.4,30.10,West,270,2.0,6.0,43,0.00,,---,0.00,761.00,VWS V14.01,2013-04-24 20:30:00,
2013-04-24 16:33:00,91.0,66.0,30.10,West,269,1.0,5.0,43,0.00,,,0.00,703,weatherlink.com 1.10,2013-04-24 20:33:00,
2013-04-24 16:48:00,91.0,65.0,30.09,WSW,239,3.0,6.0,42,0.00,,,0.00,643,weatherlink.com 1.10,2013-04-24 20:48:00,
2013-04-24 17:00:00,90.6,65.1,30.09,West,270,3.0,6.0,43,0.00,,---,0.00,667.00,VWS V14.01,2013-04-24 21:00:00,
2013-04-24 17:03:00,90.4,66.0,30.09,WSW,257,2.0,7.0,44,0.00,,,0.00,601,weatherlink.com 1.10,2013-04-24 21:03:00,
2013-04-24 17:18:00,89.6,66.0,30.09,WNW,286,2.0,7.0,45,0.00,,,0.00,550,weatherlink.com 1.10,2013-04-24 21:18:00,
2013-04-24 17:30:00,89.2,65.7,30.09,West,270,3.0,7.0,46,0.00,,---,0.00,565.00,VWS V14.01,2013-04-24 21:30:00,
2013-04-24 17:33:00,88.9,65.0,30.09,West,277,3.0,6.0,45,0.00,,,0.00,494,weatherlink.com 1.10,2013-04-24 21:33:00,
2013-04-24 17:48:00,88.0,65.0,30.09,West,262,3.0,7.0,46,0.00,,,0.00,427,weatherlink.com 1.10,2013-04-24 21:48:00,
2013-04-24 18:00:00,87.3,64.6,30.09,West,270,4.0,7.0,47,0.00,,---,0.00,446.00,VWS V14.01,2013-04-24 22:00:00,
2013-04-24 18:03:00,86.9,65.0,30.09,West,274,3.0,7.0,48,0.00,,,0.00,362,weatherlink.com 1.10,2013-04-24 22:03:00,
2013-04-24 18:30:00,85.2,64.5,30.10,West,270,3.0,7.0,50,0.00,,---,0.00,292.00,VWS V14.01,2013-04-24 22:30:00,
2013-04-24 18:33:00,84.7,65.0,30.10,West,281,3.0,7.0,51,0.00,,,0.00,183,weatherlink.com 1.10,2013-04-24 22:33:00,
2013-04-24 18:48:00,82.8,64.0,30.10,WSW,247,4.0,6.0,53,0.00,,,0.00,132,weatherlink.com 1.10,2013-04-24 22:48:00,
2013-04-24 19:00:00,81.7,65.0,30.10,West,270,4.0,6.0,57,0.00,,---,0.00,143.00,VWS V14.01,2013-04-24 23:00:00,
2013-04-24 19:03:00,81.4,65.0,30.10,West,275,4.0,6.0,57,0.00,,,0.00,100,weatherlink.com 1.10,2013-04-24 23:03:00,
2013-04-24 19:18:00,80.3,65.0,30.10,West,273,4.0,7.0,59,0.00,,,0.00,33,weatherlink.com 1.10,2013-04-24 23:18:00,
2013-04-24 19:30:00,79.3,64.2,30.10,West,270,4.0,7.0,60,0.00,,---,0.00,62.00,VWS V14.01,2013-04-24 23:30:00,
2013-04-24 19:33:00,78.7,65.0,30.11,WNW,285,4.0,6.0,62,0.00,,,0.00,12,weatherlink.com 1.10,2013-04-24 23:33:00,
2013-04-24 19:48:00,77.4,64.0,30.10,West,269,4.0,6.0,64,0.00,,,0.00,0,weatherlink.com 1.10,2013-04-24 23:48:00,
2013-04-24 20:00:00,76.8,64.6,30.11,West,270,4.0,7.0,66,0.00,,---,0.00,6.00,VWS V14.01,2013-04-25 00:00:00,
2013-04-24 20:03:00,76.5,64.0,30.11,WSW,257,4.0,7.0,66,0.00,,,0.00,0,weatherlink.com 1.10,2013-04-25 00:03:00,
2013-04-24 20:18:00,76.0,64.0,30.12,West,268,3.0,8.0,67,0.00,,,0.00,0,weatherlink.com 1.10,2013-04-25 00:18:00,
2013-04-24 20:30:00,75.7,64.0,30.12,West,270,4.0,8.0,67,0.00,,---,0.00,0.00,VWS V14.01,2013-04-25 00:30:00,
2013-04-24 20:33:00,75.6,64.0,30.12,NW,312,5.0,8.0,68,0.00,,,0.00,0,weatherlink.com 1.10,2013-04-25 00:33:00,
2013-04-24 20:48:00,75.5,65.0,30.13,West,263,3.0,7.0,70,0.00,,,0.00,0,weatherlink.com 1.10,2013-04-25 00:48:00,
2013-04-24 21:00:00,75.4,64.9,30.13,West,270,4.0,8.0,70,0.00,,---,0.00,0.00,VWS V14.01,2013-04-25 01:00:00,
2013-04-24 21:03:00,75.3,65.0,30.13,WNW,285,5.0,8.0,70,0.00,,,0.00,0,weatherlink.com 1.10,2013-04-25 01:03:00,
2013-04-24 21:18:00,75.2,65.0,30.13,WSW,252,6.0,8.0,71,0.00,,,0.00,0,weatherlink.com 1.10,2013-04-25 01:18:00,
2013-04-24 21:30:00,75.2,64.8,30.13,West,270,5.0,9.0,70,0.00,,---,0.00,0.00,VWS V14.01,2013-04-25 01:30:00,
2013-04-24 21:33:00,75.1,65.0,30.14,WSW,242,5.0,8.0,70,0.00,,,0.00,0,weatherlink.com 1.10,2013-04-25 01:33:00,
2013-04-24 21:48:00,75.1,64.0,30.14,SW,231,4.0,10.0,69,0.00,,,0.00,0,weatherlink.com 1.10,2013-04-25 01:48:00,
2013-04-24 22:00:00,75.0,64.6,30.14,WSW,248,5.0,10.0,70,0.00,,---,0.00,0.00,VWS V14.01,2013-04-25 02:00:00,
2013-04-24 22:03:00,75.0,65.0,30.14,West,261,3.0,9.0,70,0.00,,,0.00,0,weatherlink.com 1.10,2013-04-25 02:03:00,
2013-04-24 22:18:00,75.0,64.0,30.14,West,259,3.0,7.0,69,0.00,,,0.00,0,weatherlink.com 1.10,2013-04-25 02:18:00,
2013-04-24 22:30:00,74.9,64.1,30.15,West,270,4.0,7.0,69,0.00,,---,0.00,0.00,VWS V14.01,2013-04-25 02:30:00,
2013-04-24 22:33:00,74.9,64.0,30.15,WNW,286,3.0,7.0,69,0.00,,,0.00,0,weatherlink.com 1.10,2013-04-25 02:33:00,
2013-04-24 22:48:00,74.9,65.0,30.15,WSW,248,3.0,7.0,70,0.00,,,0.00,0,weatherlink.com 1.10,2013-04-25 02:48:00,
2013-04-24 23:00:00,74.9,64.5,30.15,West,270,4.0,8.0,70,0.00,,---,0.00,0.00,VWS V14.01,2013-04-25 03:00:00,
2013-04-24 23:03:00,74.8,64.0,30.15,WSW,248,3.0,7.0,70,0.00,,,0.00,0,weatherlink.com 1.10,2013-04-25 03:03:00,
2013-04-24 23:19:00,74.7,64.0,30.14,West,269,4.0,7.0,70,0.00,,,0.00,0,weatherlink.com 1.10,2013-04-25 03:19:00,
2013-04-24 23:30:00,74.7,64.3,30.14,WSW,248,4.0,8.0,70,0.00,,---,0.00,0.00,VWS V14.01,2013-04-25 03:30:00,
2013-04-24 23:34:00,74.8,64.0,30.14,WSW,258,2.0,6.0,70,0.00,,,0.00,0,weatherlink.com 1.10,2013-04-25 03:34:00,
2013-04-24 23:49:00,74.8,65.0,30.15,West,271,3.0,7.0,71,0.00,,,0.00,0,weatherlink.com 1.10,2013-04-25 03:49:00,